createdAt,value
2017-03-19T00:01:08.750Z,65.5
2017-03-19T00:02:18.754Z,65.98
2017-03-19T00:03:28.923Z,65.69
2017-03-19T00:04:38.865Z,66.08
2017-03-19T00:05:48.835Z,65.88
2017-03-19T00:06:58.869Z,65.98
2017-03-19T00:08:08.804Z,65.98
2017-03-19T00:09:18.984Z,66.08
2017-03-19T00:10:28.732Z,66.08
2017-03-19T00:11:38.681Z,65.98
2017-03-19T00:12:48.612Z,66.46
2017-03-19T00:13:58.565Z,66.46
2017-03-19T00:15:08.731Z,66.36
2017-03-19T00:16:18.742Z,66.27
2017-03-19T00:17:28.756Z,66.46
2017-03-19T00:18:38.714Z,66.55
2017-03-19T00:19:48.651Z,66.64
2017-03-19T00:20:58.991Z,67.02
2017-03-19T00:22:08.919Z,66.93
2017-03-19T00:23:18.849Z,66.93
2017-03-19T00:24:28.923Z,67.02
2017-03-19T00:25:38.828Z,67.02
2017-03-19T00:26:48.987Z,66.83
2017-03-19T00:27:58.952Z,67.02
2017-03-19T00:29:08.918Z,66.93
2017-03-19T00:30:18.934Z,66.83
2017-03-19T00:31:28.588Z,66.74
2017-03-19T00:32:38.858Z,66.64
2017-03-19T00:33:48.838Z,67.02
2017-03-19T00:34:58.786Z,67.02
2017-03-19T00:36:08.708Z,66.93
2017-03-19T00:37:18.655Z,66.36
2017-03-19T00:38:28.943Z,66.27
2017-03-19T00:39:38.859Z,66.36
2017-03-19T00:40:48.855Z,66.46
2017-03-19T00:41:58.825Z,66.27
2017-03-19T00:43:08.757Z,66.46
2017-03-19T00:44:19.037Z,66.55
2017-03-19T00:45:28.965Z,66.27
2017-03-19T00:46:38.903Z,66.36
2017-03-19T00:47:49.023Z,66.27
2017-03-19T00:48:59.016Z,66.36
2017-03-19T00:50:09.192Z,66.17
2017-03-19T00:51:19.274Z,66.93
2017-03-19T00:52:29.206Z,66.83
2017-03-19T00:53:39.151Z,66.83
2017-03-19T00:54:49.079Z,66.93
2017-03-19T00:55:59.375Z,67.4
2017-03-19T00:57:08.976Z,67.12
2017-03-19T00:58:18.944Z,67.37
2017-03-19T00:59:28.851Z,67.65
2017-03-19T01:00:38.845Z,67.94
2017-03-19T01:01:49.083Z,68.04
2017-03-19T01:02:59.000Z,67.65
2017-03-19T01:04:09.007Z,67.65
2017-03-19T01:05:19.003Z,67.56
2017-03-19T01:06:28.949Z,67.94
2017-03-19T01:07:39.113Z,67.65
2017-03-19T01:08:49.032Z,67.65
2017-03-19T01:09:58.717Z,67.56
2017-03-19T01:11:08.648Z,68.04
2017-03-19T01:12:18.581Z,68.13
2017-03-19T01:13:28.918Z,68.04
2017-03-19T01:14:38.632Z,68.41
2017-03-19T01:15:48.436Z,68.7
2017-03-19T01:16:58.385Z,68.41
2017-03-19T01:18:08.331Z,68.79
2017-03-19T01:19:18.537Z,68.79
2017-03-19T01:20:28.515Z,68.6
2017-03-19T01:21:38.476Z,68.6
2017-03-19T01:22:48.436Z,68.32
2017-03-19T01:23:58.456Z,68.32
2017-03-19T01:25:08.402Z,68.79
2017-03-19T01:26:18.369Z,68.79
2017-03-19T01:27:28.369Z,68.98
2017-03-19T01:28:38.307Z,69.46
2017-03-19T01:29:48.334Z,68.98
2017-03-19T01:30:58.600Z,68.79
2017-03-19T01:32:08.495Z,68.98
2017-03-19T01:33:18.402Z,68.7
2017-03-19T01:34:28.356Z,68.6
2017-03-19T01:35:38.275Z,68.51
2017-03-19T01:36:48.491Z,69.17
2017-03-19T01:37:58.419Z,68.89
2017-03-19T01:39:08.350Z,69.27
2017-03-19T01:40:18.305Z,69.17
2017-03-19T01:41:28.265Z,69.27
2017-03-19T01:42:38.454Z,68.98
2017-03-19T01:43:48.430Z,68.98
2017-03-19T01:44:58.391Z,68.98
2017-03-19T01:46:08.291Z,69.17
2017-03-19T01:47:18.398Z,69.27
2017-03-19T01:48:28.692Z,69.17
2017-03-19T01:49:38.640Z,69.08
2017-03-19T01:50:48.591Z,69.65
2017-03-19T01:51:58.569Z,69.55
2017-03-19T01:53:08.531Z,69.36
2017-03-19T01:54:18.820Z,69.65
2017-03-19T01:55:28.822Z,68.98
2017-03-19T01:56:38.734Z,69.27
2017-03-19T01:57:48.044Z,69.08
2017-03-19T01:58:58.038Z,69.55
2017-03-19T02:00:08.353Z,69.55
2017-03-19T02:01:18.316Z,69.36
2017-03-19T02:02:28.284Z,68.98
2017-03-19T02:03:38.265Z,69.27
2017-03-19T02:04:47.857Z,69.27
2017-03-19T02:05:58.081Z,69.36
2017-03-19T02:07:08.129Z,69.36
2017-03-19T02:08:18.056Z,68.98
2017-03-19T02:09:28.006Z,69.27
2017-03-19T02:10:38.110Z,69.27
2017-03-19T02:11:48.517Z,69.17
2017-03-19T02:12:58.440Z,69.36
2017-03-19T02:14:08.415Z,69.27
2017-03-19T02:15:18.344Z,69.08
2017-03-19T02:16:28.259Z,68.89
2017-03-19T02:17:38.526Z,69.17
2017-03-19T02:18:48.476Z,68.89
2017-03-19T02:19:57.811Z,68.98
2017-03-19T02:21:07.742Z,68.98
2017-03-19T02:22:17.747Z,69.17
2017-03-19T02:23:27.928Z,68.98
2017-03-19T02:24:37.881Z,68.98
2017-03-19T02:25:47.494Z,69.27
2017-03-19T02:26:57.402Z,69.17
2017-03-19T02:28:07.327Z,69.17
2017-03-19T02:29:17.647Z,68.98
2017-03-19T02:30:27.603Z,69.46
2017-03-19T02:31:37.566Z,69.93
2017-03-19T02:32:47.640Z,69.74
2017-03-19T02:33:57.724Z,69.55
2017-03-19T02:35:07.892Z,69.55
2017-03-19T02:36:17.204Z,69.84
2017-03-19T02:37:27.216Z,69.59
2017-03-19T02:38:37.166Z,69.36
2017-03-19T02:39:47.134Z,69.36
2017-03-19T02:40:57.349Z,69.74
2017-03-19T02:42:07.273Z,69.74
2017-03-19T02:43:16.561Z,69.84
2017-03-19T02:44:26.554Z,69.4
2017-03-19T02:45:35.903Z,69.49
2017-03-19T02:46:46.242Z,69.46
2017-03-19T02:47:55.872Z,69.4
2017-03-19T02:49:05.858Z,70.25
2017-03-19T02:50:15.821Z,69.93
2017-03-19T02:51:25.138Z,70.03
2017-03-19T02:52:35.382Z,69.93
2017-03-19T02:53:45.376Z,69.93
2017-03-19T02:54:55.295Z,69.78
2017-03-19T02:56:05.223Z,70.03
2017-03-19T02:57:14.899Z,70.03
2017-03-19T02:58:25.100Z,69.74
2017-03-19T02:59:35.113Z,70.15
2017-03-19T03:00:44.805Z,70.92
2017-03-19T03:01:54.739Z,70.5
2017-03-19T03:03:04.694Z,70.31
2017-03-19T03:04:14.972Z,70.31
2017-03-19T03:05:24.905Z,70.69
2017-03-19T03:06:34.510Z,70.59
2017-03-19T03:07:44.476Z,70.69
2017-03-19T03:08:54.125Z,70.63
2017-03-19T03:10:04.298Z,70.59
2017-03-19T03:11:14.302Z,70.54
2017-03-19T03:12:24.275Z,70.73
2017-03-19T03:13:34.194Z,70.54
2017-03-19T03:14:44.127Z,70.54
2017-03-19T03:15:54.353Z,70.63
2017-03-19T03:17:04.281Z,70.54
2017-03-19T03:18:14.188Z,70.63
2017-03-19T03:19:24.153Z,70.54
2017-03-19T03:20:34.216Z,70.54
2017-03-19T03:21:44.456Z,70.44
2017-03-19T03:22:54.086Z,70.73
2017-03-19T03:24:04.028Z,70.82
2017-03-19T03:25:13.990Z,70.73
2017-03-19T03:26:23.950Z,70.35
2017-03-19T03:27:34.198Z,70.44
2017-03-19T03:28:44.364Z,70.35
2017-03-19T03:29:54.349Z,69.78
2017-03-19T03:31:04.396Z,69.4
2017-03-19T03:32:14.337Z,69.59
2017-03-19T03:33:24.872Z,69.68
2017-03-19T03:34:34.817Z,69.68
2017-03-19T03:35:44.400Z,69.02
2017-03-19T03:36:54.341Z,69.21
2017-03-19T03:38:04.258Z,69.3
2017-03-19T03:39:14.179Z,69.3
2017-03-19T03:40:24.181Z,69.3
2017-03-19T03:41:34.127Z,69.3
2017-03-19T03:42:44.070Z,69.11
2017-03-19T03:43:53.667Z,69.11
2017-03-19T03:45:03.570Z,69.34
2017-03-19T03:46:13.570Z,69.3
2017-03-19T03:47:23.173Z,69.05
2017-03-19T03:48:33.192Z,69.05
2017-03-19T03:49:42.853Z,68.86
2017-03-19T03:50:53.008Z,68.77
2017-03-19T03:52:02.663Z,68.58
2017-03-19T03:53:44.463Z,68.67
2017-03-19T03:54:54.403Z,68.86
2017-03-19T03:56:04.719Z,68.77
2017-03-19T03:57:14.352Z,68.86
2017-03-19T03:58:23.962Z,68.86
2017-03-19T03:59:33.876Z,69.05
2017-03-19T04:00:43.842Z,68.86
2017-03-19T04:01:54.114Z,68.86
2017-03-19T04:03:04.054Z,68.96
2017-03-19T04:04:14.054Z,68.48
2017-03-19T04:05:24.045Z,68.67
2017-03-19T04:06:33.990Z,68.29
2017-03-19T04:07:44.175Z,68.39
2017-03-19T04:08:54.092Z,68.1
2017-03-19T04:10:04.061Z,68.19
2017-03-19T04:11:13.978Z,68.29
2017-03-19T04:12:23.936Z,68.19
2017-03-19T04:13:34.446Z,68.19
2017-03-19T04:14:44.391Z,68.01
2017-03-19T04:15:54.454Z,68.29
2017-03-19T04:17:04.387Z,68.26
2017-03-19T04:18:14.394Z,68.26
2017-03-19T04:19:24.598Z,68.1
2017-03-19T04:20:34.517Z,68.54
2017-03-19T04:21:44.480Z,68.16
2017-03-19T04:22:54.425Z,68.16
2017-03-19T04:24:04.135Z,67.88
2017-03-19T04:25:14.644Z,68.83
2017-03-19T04:26:24.547Z,69.59
2017-03-19T04:27:34.511Z,69.68
2017-03-19T04:28:44.750Z,69.49
2017-03-19T04:29:54.779Z,69.49
2017-03-19T04:31:04.985Z,69.68
2017-03-19T04:32:14.973Z,69.78
2017-03-19T04:33:24.892Z,69.68
2017-03-19T04:34:34.852Z,69.78
2017-03-19T04:35:44.866Z,69.78
2017-03-19T04:36:55.247Z,69.78
2017-03-19T04:38:05.172Z,69.68
2017-03-19T04:39:15.110Z,69.78
2017-03-19T04:40:25.148Z,69.68
2017-03-19T04:41:35.090Z,69.4
2017-03-19T04:42:45.236Z,69.59
2017-03-19T04:43:55.163Z,69.68
2017-03-19T04:45:05.075Z,69.78
2017-03-19T04:46:15.180Z,69.49
2017-03-19T04:47:25.086Z,69.49
2017-03-19T04:48:35.270Z,69.4
2017-03-19T04:49:44.862Z,69.68
2017-03-19T04:50:54.811Z,69.49
2017-03-19T04:52:04.764Z,69.87
2017-03-19T04:53:14.694Z,69.59
2017-03-19T04:54:24.909Z,69.68
2017-03-19T04:55:34.849Z,69.87
2017-03-19T04:56:44.767Z,70.06
2017-03-19T04:57:54.770Z,70.15
2017-03-19T04:59:04.796Z,69.49
2017-03-19T05:00:15.245Z,69.68
2017-03-19T05:01:25.398Z,69.68
2017-03-19T05:02:35.354Z,70.06
2017-03-19T05:03:45.277Z,69.78
2017-03-19T05:04:54.975Z,69.49
2017-03-19T05:06:05.226Z,70.06
2017-03-19T05:07:15.146Z,70.15
2017-03-19T05:08:25.120Z,70.06
2017-03-19T05:09:35.172Z,70.54
2017-03-19T05:10:45.105Z,70.73
2017-03-19T05:11:55.283Z,70.59
2017-03-19T05:13:05.195Z,70.63
2017-03-19T05:14:15.234Z,70.69
2017-03-19T05:15:25.238Z,70.78
2017-03-19T05:16:34.819Z,71.36
2017-03-19T05:17:44.672Z,70.98
2017-03-19T05:18:54.590Z,71.26
2017-03-19T05:20:04.620Z,71.45
2017-03-19T05:21:14.541Z,71.55
2017-03-19T05:22:24.449Z,71.45
2017-03-19T05:23:34.728Z,72.21
2017-03-19T05:24:44.653Z,71.73
2017-03-19T05:25:54.595Z,71.92
2017-03-19T05:27:04.532Z,72.02
2017-03-19T05:28:14.449Z,72.02
2017-03-19T05:29:24.405Z,72.3
2017-03-19T05:30:34.012Z,71.92
2017-03-19T05:31:43.942Z,72.21
2017-03-19T05:32:53.888Z,72.02
2017-03-19T05:34:03.812Z,71.92
2017-03-19T05:35:14.126Z,71.92
2017-03-19T05:36:24.055Z,72.59
2017-03-19T05:37:33.979Z,72.4
2017-03-19T05:38:44.091Z,72.49
2017-03-19T05:39:54.048Z,72.97
2017-03-19T05:41:04.211Z,73
2017-03-19T05:42:13.864Z,72.63
2017-03-19T05:43:23.787Z,72.63
2017-03-19T05:44:33.705Z,72.44
2017-03-19T05:45:43.660Z,72.44
2017-03-19T05:46:53.924Z,72.53
2017-03-19T05:48:03.516Z,72.63
2017-03-19T05:49:13.488Z,72.34
2017-03-19T05:50:23.413Z,72.34
2017-03-19T05:51:33.312Z,72.63
2017-03-19T05:52:43.587Z,72.81
2017-03-19T05:53:53.545Z,72.25
2017-03-19T05:55:03.465Z,72.15
2017-03-19T05:56:13.094Z,71.86
2017-03-19T05:57:23.021Z,71.96
2017-03-19T05:58:33.176Z,71.86
2017-03-19T05:59:43.121Z,71.81
2017-03-19T06:00:53.035Z,71.43
2017-03-19T06:02:02.930Z,71.58
2017-03-19T06:03:12.850Z,71.71
2017-03-19T06:04:23.048Z,71.71
2017-03-19T06:05:32.969Z,71.67
2017-03-19T06:06:42.881Z,71.81
2017-03-19T06:07:52.518Z,71.48
2017-03-19T06:09:02.442Z,71.04
2017-03-19T06:10:12.740Z,71.23
2017-03-19T06:11:22.659Z,71.33
2017-03-19T06:12:32.628Z,71.52
2017-03-19T06:13:42.561Z,71.23
2017-03-19T06:14:52.517Z,71.52
2017-03-19T06:16:02.687Z,71.23
2017-03-19T06:17:12.677Z,71.14
2017-03-19T06:18:22.585Z,71.33
2017-03-19T06:19:32.565Z,70.67
2017-03-19T06:20:42.481Z,70.95
2017-03-19T06:21:52.638Z,70.67
2017-03-19T06:23:02.602Z,70.48
2017-03-19T06:24:12.641Z,70.57
2017-03-19T06:25:22.566Z,70.67
2017-03-19T06:26:32.493Z,70.76
2017-03-19T06:27:42.872Z,70.67
2017-03-19T06:28:52.802Z,70.38
2017-03-19T06:30:02.768Z,70.76
2017-03-19T06:31:12.811Z,70.57
2017-03-19T06:32:22.957Z,70.57
2017-03-19T06:33:32.875Z,70.86
2017-03-19T06:34:42.804Z,70.76
2017-03-19T06:35:52.721Z,70.86
2017-03-19T06:37:02.331Z,70.48
2017-03-19T06:38:12.256Z,70.86
2017-03-19T06:39:22.149Z,70.57
2017-03-19T06:40:32.126Z,70.67
2017-03-19T06:41:42.071Z,70.67
2017-03-19T06:42:52.099Z,70.67
2017-03-19T06:44:02.053Z,70.38
2017-03-19T06:45:12.258Z,70.67
2017-03-19T06:46:22.211Z,70.57
2017-03-19T06:47:32.178Z,70.57
2017-03-19T06:48:42.148Z,70.76
2017-03-19T06:49:51.749Z,70.67
2017-03-19T06:51:02.008Z,70.76
2017-03-19T06:52:11.926Z,70.67
2017-03-19T06:53:21.212Z,70.76
2017-03-19T06:54:31.165Z,70.67
2017-03-19T06:55:41.109Z,70.57
2017-03-19T06:56:51.371Z,70.57
2017-03-19T06:58:01.393Z,70.95
2017-03-19T06:59:11.495Z,70.57
2017-03-19T07:00:21.075Z,70.67
2017-03-19T07:01:31.068Z,70.67
2017-03-19T07:02:41.243Z,70.67
2017-03-19T07:03:51.190Z,70.86
2017-03-19T07:05:01.161Z,70.86
2017-03-19T07:06:11.103Z,70.76
2017-03-19T07:07:21.019Z,71.43
2017-03-19T07:08:31.237Z,71.33
2017-03-19T07:09:41.183Z,70.86
2017-03-19T07:10:51.101Z,71.43
2017-03-19T07:12:01.090Z,71.71
2017-03-19T07:13:11.055Z,71.14
2017-03-19T07:14:21.267Z,71.81
2017-03-19T07:15:31.198Z,71.62
2017-03-19T07:16:41.115Z,71.52
2017-03-19T07:17:51.049Z,72.09
2017-03-19T07:19:00.988Z,72
2017-03-19T07:20:11.170Z,72
2017-03-19T07:21:21.109Z,72
2017-03-19T07:22:31.074Z,71.9
2017-03-19T07:23:40.989Z,72.56
2017-03-19T07:24:50.966Z,72.47
2017-03-19T07:26:01.255Z,72.66
2017-03-19T07:27:11.192Z,72.75
2017-03-19T07:28:21.128Z,72.85
2017-03-19T07:29:31.143Z,72.95
2017-03-19T07:30:41.103Z,73.14
2017-03-19T07:31:51.310Z,73.33
2017-03-19T07:33:01.513Z,73.61
2017-03-19T07:34:11.141Z,73.33
2017-03-19T07:35:21.145Z,73.33
2017-03-19T07:36:30.812Z,73.42
2017-03-19T07:37:40.996Z,73.42
2017-03-19T07:38:50.966Z,73.61
2017-03-19T07:40:00.912Z,73.99
2017-03-19T07:41:11.296Z,74.08
2017-03-19T07:42:21.363Z,73.96
2017-03-19T07:43:31.642Z,74.05
2017-03-19T07:44:41.605Z,74.43
2017-03-19T07:45:51.588Z,74.15
2017-03-19T07:47:01.507Z,75.09
2017-03-19T07:48:10.812Z,75
2017-03-19T07:49:21.082Z,75.19
2017-03-19T07:50:31.078Z,75.57
2017-03-19T07:51:41.067Z,75.85
2017-03-19T07:52:50.777Z,75.47
2017-03-19T07:54:00.711Z,75.85
2017-03-19T07:55:10.913Z,75.57
2017-03-19T07:56:20.841Z,75.57
2017-03-19T07:57:30.797Z,76.04
2017-03-19T07:58:40.408Z,75.85
2017-03-19T07:59:50.013Z,75.67
2017-03-19T08:01:00.339Z,76.14
2017-03-19T08:02:10.257Z,75.85
2017-03-19T08:03:20.217Z,75.76
2017-03-19T08:04:30.280Z,75.85
2017-03-19T08:05:40.256Z,75.89
2017-03-19T08:06:50.533Z,75.85
2017-03-19T08:08:00.438Z,76.52
2017-03-19T08:09:10.454Z,76.71
2017-03-19T08:10:20.416Z,76.8
2017-03-19T08:11:29.715Z,77.09
2017-03-19T08:12:39.920Z,76.99
2017-03-19T08:13:49.902Z,77.37
2017-03-19T08:14:59.876Z,77.47
2017-03-19T08:16:09.836Z,77.84
2017-03-19T08:17:19.773Z,77.94
2017-03-19T08:18:29.951Z,77.94
2017-03-19T08:19:39.904Z,77.47
2017-03-19T08:20:49.867Z,77.94
2017-03-19T08:21:59.837Z,78.42
2017-03-19T08:23:09.882Z,78.32
2017-03-19T08:24:20.052Z,78.89
2017-03-19T08:25:30.063Z,78.89
2017-03-19T08:26:40.015Z,78.99
2017-03-19T08:27:49.953Z,78.7
2017-03-19T08:28:59.921Z,78.7
2017-03-19T08:30:10.435Z,78.8
2017-03-19T08:31:20.348Z,78.89
2017-03-19T08:32:29.997Z,79.08
2017-03-19T08:33:39.934Z,79.36
2017-03-19T08:34:49.991Z,79.36
2017-03-19T08:36:00.230Z,79.17
2017-03-19T08:37:10.205Z,79.36
2017-03-19T08:38:20.279Z,79.84
2017-03-19T08:39:30.238Z,80.22
2017-03-19T08:40:40.226Z,80.03
2017-03-19T08:41:50.114Z,79.74
2017-03-19T08:43:00.104Z,79.84
2017-03-19T08:44:10.049Z,80.13
2017-03-19T08:45:19.986Z,79.74
2017-03-19T08:46:29.910Z,80.13
2017-03-19T08:47:39.793Z,80.03
2017-03-19T08:48:49.736Z,80.22
2017-03-19T08:49:59.401Z,80.32
2017-03-19T08:51:09.348Z,80.79
2017-03-19T08:52:19.360Z,80.79
2017-03-19T08:53:29.695Z,80.51
2017-03-19T08:54:39.727Z,80.64
2017-03-19T08:55:49.718Z,80.98
2017-03-19T08:56:59.688Z,81.07
2017-03-19T08:58:09.657Z,81.12
2017-03-19T08:59:19.877Z,80.55
2017-03-19T09:00:29.677Z,80.55
2017-03-19T09:01:39.838Z,81.26
2017-03-19T09:02:49.873Z,80.35
2017-03-19T09:03:59.847Z,80.45
2017-03-19T09:05:10.076Z,81.02
2017-03-19T09:06:20.056Z,80.64
2017-03-19T09:07:30.126Z,81.3
2017-03-19T09:08:40.057Z,81.12
2017-03-19T09:09:49.993Z,80.93
2017-03-19T09:11:00.258Z,80.79
2017-03-19T09:12:10.249Z,80.83
2017-03-19T09:13:20.211Z,81.02
2017-03-19T09:14:30.429Z,81.4
2017-03-19T09:15:40.599Z,81.3
2017-03-19T09:16:50.782Z,81.49
2017-03-19T09:18:00.711Z,81.21
2017-03-19T09:19:10.737Z,81.3
2017-03-19T09:20:20.733Z,81.4
2017-03-19T09:21:30.775Z,81.49
2017-03-19T09:22:41.078Z,81.4
2017-03-19T09:23:51.103Z,81.49
2017-03-19T09:25:01.139Z,81.12
2017-03-19T09:26:10.780Z,81.93
2017-03-19T09:27:20.845Z,81.65
2017-03-19T09:28:31.043Z,81.97
2017-03-19T09:29:40.635Z,81.84
2017-03-19T09:30:50.434Z,81.65
2017-03-19T09:32:00.104Z,81.93
2017-03-19T09:33:10.070Z,81.93
2017-03-19T09:34:20.027Z,82.12
2017-03-19T09:35:29.946Z,82.21
2017-03-19T09:36:39.982Z,82.69
2017-03-19T09:37:49.630Z,82.21
2017-03-19T09:38:59.537Z,82.5
2017-03-19T09:40:09.647Z,82.78
2017-03-19T09:41:19.618Z,82.31
2017-03-19T09:42:29.606Z,82.73
2017-03-19T09:43:39.613Z,82.64
2017-03-19T09:44:49.536Z,82.45
2017-03-19T09:45:59.711Z,82.73
2017-03-19T09:47:09.679Z,82.54
2017-03-19T09:48:19.685Z,82.64
2017-03-19T09:49:29.599Z,82.26
2017-03-19T09:50:39.242Z,82.73
2017-03-19T09:51:49.480Z,82.54
2017-03-19T09:52:59.419Z,82.54
2017-03-19T09:54:09.360Z,82.54
2017-03-19T09:55:19.352Z,83.01
2017-03-19T09:56:29.302Z,82.26
2017-03-19T09:57:39.231Z,82.26
2017-03-19T09:58:49.191Z,82.45
2017-03-19T09:59:59.180Z,82.16
2017-03-19T10:01:09.151Z,82.45
2017-03-19T10:02:19.076Z,82.82
2017-03-19T10:03:29.287Z,82.54
2017-03-19T10:04:39.467Z,83.39
2017-03-19T10:05:49.440Z,83.3
2017-03-19T10:06:59.382Z,83.01
2017-03-19T10:08:09.034Z,83.2
2017-03-19T10:09:19.225Z,83.11
2017-03-19T10:10:29.204Z,83.2
2017-03-19T10:11:39.169Z,83.3
2017-03-19T10:12:49.138Z,82.82
2017-03-19T10:13:59.304Z,83.01
2017-03-19T10:15:09.665Z,83.3
2017-03-19T10:16:19.676Z,83.39
2017-03-19T10:17:29.744Z,83.68
2017-03-19T10:18:39.022Z,83.97
2017-03-19T10:19:48.654Z,83.49
2017-03-19T10:20:58.944Z,83.3
2017-03-19T10:22:08.553Z,83.78
2017-03-19T10:23:18.518Z,83.49
2017-03-19T10:24:28.478Z,83.68
2017-03-19T10:25:38.498Z,83.97
2017-03-19T10:26:48.734Z,84.44
2017-03-19T10:27:58.715Z,83.87
2017-03-19T10:29:08.700Z,84.06
2017-03-19T10:30:18.704Z,84.34
2017-03-19T10:31:28.650Z,84.63
2017-03-19T10:32:38.918Z,84.25
2017-03-19T10:33:48.988Z,84.44
2017-03-19T10:34:58.933Z,84.34
2017-03-19T10:36:08.901Z,84.25
2017-03-19T10:37:18.877Z,84.72
2017-03-19T10:38:29.064Z,85.01
2017-03-19T10:39:39.052Z,84.78
2017-03-19T10:40:49.003Z,84.91
2017-03-19T10:41:58.951Z,84.53
2017-03-19T10:43:09.265Z,84.68
2017-03-19T10:44:19.499Z,84.59
2017-03-19T10:45:29.536Z,85.06
2017-03-19T10:46:39.732Z,85.16
2017-03-19T10:47:49.815Z,85.06
2017-03-19T10:48:59.805Z,85.39
2017-03-19T10:50:09.672Z,85.16
2017-03-19T10:51:19.634Z,85.35
2017-03-19T10:52:29.732Z,85.49
2017-03-19T10:53:39.704Z,85.16
2017-03-19T10:54:49.790Z,86.01
2017-03-19T10:56:00.091Z,85.53
2017-03-19T10:57:10.107Z,85.68
2017-03-19T10:58:20.122Z,85.49
2017-03-19T10:59:29.776Z,85.68
2017-03-19T11:00:39.908Z,85.91
2017-03-19T11:01:50.155Z,86.3
2017-03-19T11:03:00.144Z,86.49
2017-03-19T11:04:10.133Z,86.39
2017-03-19T11:05:20.139Z,86.34
2017-03-19T11:06:30.090Z,86.72
2017-03-19T11:07:39.992Z,86.53
2017-03-19T11:08:49.945Z,86.49
2017-03-19T11:09:59.911Z,86.68
2017-03-19T11:11:09.870Z,86.01
2017-03-19T11:12:19.987Z,86.63
2017-03-19T11:13:30.188Z,86.63
2017-03-19T11:14:39.840Z,86.91
2017-03-19T11:15:49.783Z,86.91
2017-03-19T11:16:59.769Z,86.91
2017-03-19T11:18:09.391Z,86.72
2017-03-19T11:19:19.581Z,86.91
2017-03-19T11:20:29.616Z,86.72
2017-03-19T11:21:39.584Z,87.29
2017-03-19T11:22:49.616Z,87.38
2017-03-19T11:23:59.250Z,87.29
2017-03-19T11:25:09.556Z,87.19
2017-03-19T11:26:19.590Z,87.29
2017-03-19T11:27:29.638Z,87.29
2017-03-19T11:28:39.612Z,87.19
2017-03-19T11:29:49.616Z,87.1
2017-03-19T11:31:00.064Z,87.48
2017-03-19T11:32:10.065Z,87.76
2017-03-19T11:33:20.108Z,87.67
2017-03-19T11:34:29.735Z,87.76
2017-03-19T11:35:39.826Z,87.57
2017-03-19T11:36:50.089Z,87.86
2017-03-19T11:38:00.051Z,87.67
2017-03-19T11:39:10.104Z,87.57
2017-03-19T11:40:20.066Z,87.38
2017-03-19T11:41:30.058Z,87.67
2017-03-19T11:42:40.333Z,87.67
2017-03-19T11:43:50.291Z,87.57
2017-03-19T11:45:00.326Z,88.43
2017-03-19T11:46:10.398Z,87.67
2017-03-19T11:47:20.680Z,87.86
2017-03-19T11:48:30.937Z,87.9
2017-03-19T11:49:40.883Z,88.09
2017-03-19T11:50:50.870Z,88.15
2017-03-19T11:52:00.814Z,87.9
2017-03-19T11:53:10.845Z,87.81
2017-03-19T11:54:21.112Z,87.81
2017-03-19T11:55:31.083Z,87.9
2017-03-19T11:56:41.056Z,88.28
2017-03-19T11:57:51.018Z,88.38
2017-03-19T11:59:00.998Z,88.47
2017-03-19T12:00:11.283Z,88.47
2017-03-19T12:01:21.345Z,87.81
2017-03-19T12:02:31.296Z,88.38
2017-03-19T12:03:41.349Z,88.28
2017-03-19T12:04:51.353Z,88
2017-03-19T12:06:01.553Z,88
2017-03-19T12:07:11.493Z,88.47
2017-03-19T12:08:21.481Z,88.28
2017-03-19T12:09:31.436Z,88.47
2017-03-19T12:10:41.385Z,88.47
2017-03-19T12:11:51.602Z,88.38
2017-03-19T12:13:01.538Z,88.28
2017-03-19T12:14:11.485Z,88
2017-03-19T12:15:21.505Z,88.09
2017-03-19T12:16:31.488Z,88.09
2017-03-19T12:17:41.755Z,88.28
2017-03-19T12:18:51.731Z,88.38
2017-03-19T12:20:01.712Z,88.47
2017-03-19T12:21:11.031Z,88.19
2017-03-19T12:22:21.282Z,88.38
2017-03-19T12:23:31.560Z,88.19
2017-03-19T12:24:41.564Z,88.28
2017-03-19T12:25:51.531Z,88.47
2017-03-19T12:27:01.146Z,88.28
2017-03-19T12:28:11.142Z,88.38
2017-03-19T12:29:21.087Z,88.28
2017-03-19T12:30:31.129Z,88.28
2017-03-19T12:31:40.885Z,88.09
2017-03-19T12:32:50.853Z,88.28
2017-03-19T12:34:00.842Z,88.23
2017-03-19T12:35:11.083Z,88.09
2017-03-19T12:36:21.089Z,88.13
2017-03-19T12:37:31.079Z,88.42
2017-03-19T12:38:41.197Z,88.42
2017-03-19T12:39:51.186Z,88.04
2017-03-19T12:41:01.442Z,88.13
2017-03-19T12:42:11.491Z,88.23
2017-03-19T12:43:21.512Z,88.42
2017-03-19T12:44:31.485Z,88.61
2017-03-19T12:45:41.449Z,88.33
2017-03-19T12:46:51.751Z,88.33
2017-03-19T12:48:01.798Z,88.33
2017-03-19T12:49:11.754Z,88.52
2017-03-19T12:50:21.823Z,88.13
2017-03-19T12:51:32.011Z,88.42
2017-03-19T12:52:42.322Z,88.13
2017-03-19T12:53:52.207Z,88.13
2017-03-19T12:55:02.333Z,88.42
2017-03-19T12:56:12.324Z,88.52
2017-03-19T12:57:22.256Z,88.23
2017-03-19T12:58:32.530Z,88.23
2017-03-19T12:59:42.172Z,87.95
2017-03-19T13:00:52.233Z,87.85
2017-03-19T13:02:02.245Z,88.04
2017-03-19T13:03:12.284Z,88.42
2017-03-19T13:04:22.600Z,88.13
2017-03-19T13:05:32.636Z,88.23
2017-03-19T13:06:42.516Z,88.33
2017-03-19T13:07:52.440Z,88.18
2017-03-19T13:09:02.412Z,88.18
2017-03-19T13:10:12.311Z,88.37
2017-03-19T13:11:22.278Z,88.23
2017-03-19T13:12:31.922Z,88.28
2017-03-19T13:13:41.881Z,88.46
2017-03-19T13:14:51.982Z,88.46
2017-03-19T13:16:02.244Z,88.46
2017-03-19T13:17:12.226Z,88.46
2017-03-19T13:18:22.209Z,88.56
2017-03-19T13:19:32.193Z,87.99
2017-03-19T13:20:42.433Z,87.99
2017-03-19T13:21:52.696Z,87.9
2017-03-19T13:23:02.798Z,88.04
2017-03-19T13:24:12.763Z,87.8
2017-03-19T13:25:22.528Z,87.85
2017-03-19T13:26:32.511Z,88.51
2017-03-19T13:27:42.812Z,88.6
2017-03-19T13:28:52.858Z,88.04
2017-03-19T13:30:02.804Z,88.51
2017-03-19T13:31:12.502Z,88.42
2017-03-19T13:32:22.483Z,87.94
2017-03-19T13:33:32.800Z,88.04
2017-03-19T13:34:42.786Z,87.94
2017-03-19T13:35:52.576Z,88.04
2017-03-19T13:37:02.559Z,87.75
2017-03-19T13:38:12.552Z,87.75
2017-03-19T13:39:23.077Z,87.75
2017-03-19T13:40:32.759Z,87.85
2017-03-19T13:41:43.011Z,87.75
2017-03-19T13:42:53.053Z,87.85
2017-03-19T13:44:02.685Z,87.75
2017-03-19T13:45:12.948Z,87.56
2017-03-19T13:46:22.971Z,87.56
2017-03-19T13:47:33.016Z,88.13
2017-03-19T13:48:43.093Z,88.65
2017-03-19T13:49:53.138Z,88.65
2017-03-19T13:51:03.343Z,88.56
2017-03-19T13:52:13.387Z,88.46
2017-03-19T13:53:23.588Z,88.27
2017-03-19T13:54:33.563Z,88.56
2017-03-19T13:55:43.667Z,88.56
2017-03-19T13:56:54.027Z,88.37
2017-03-19T13:58:04.031Z,88.56
2017-03-19T13:59:14.315Z,88.56
2017-03-19T14:00:24.328Z,88.46
2017-03-19T14:01:34.261Z,88.56
2017-03-19T14:02:44.139Z,88.46
2017-03-19T14:03:54.182Z,88.46
2017-03-19T14:05:04.264Z,88.6
2017-03-19T14:06:14.231Z,88.51
2017-03-19T14:07:24.310Z,88.51
2017-03-19T14:08:34.550Z,88.79
2017-03-19T14:09:44.584Z,88.51
2017-03-19T14:10:54.574Z,88.41
2017-03-19T14:12:04.613Z,88.31
2017-03-19T14:13:14.595Z,88.55
2017-03-19T14:14:24.818Z,89.03
2017-03-19T14:15:34.834Z,88.55
2017-03-19T14:16:44.847Z,88.64
2017-03-19T14:17:54.823Z,88.55
2017-03-19T14:19:04.940Z,88.55
2017-03-19T14:20:15.170Z,88.55
2017-03-19T14:21:25.131Z,88.45
2017-03-19T14:22:35.072Z,88.64
2017-03-19T14:23:45.094Z,88.45
2017-03-19T14:24:55.126Z,88.64
2017-03-19T14:26:05.456Z,88.74
2017-03-19T14:27:15.430Z,89.03
2017-03-19T14:28:25.406Z,88.84
2017-03-19T14:29:35.397Z,88.74
2017-03-19T14:30:45.480Z,88.55
2017-03-19T14:31:55.812Z,88.36
2017-03-19T14:33:05.796Z,88.84
2017-03-19T14:34:16.075Z,88.84
2017-03-19T14:35:26.042Z,88.93
2017-03-19T14:36:36.132Z,89.5
2017-03-19T14:37:46.346Z,89.31
2017-03-19T14:38:56.417Z,89.98
2017-03-19T14:40:06.367Z,89.4
2017-03-19T14:41:16.351Z,89.4
2017-03-19T14:42:26.456Z,89.89
2017-03-19T14:43:36.716Z,89.69
2017-03-19T14:44:46.692Z,89.4
2017-03-19T14:45:56.699Z,89.5
2017-03-19T14:47:06.334Z,89.6
2017-03-19T14:48:16.352Z,89.69
2017-03-19T14:49:26.622Z,89.89
2017-03-19T14:50:36.647Z,89.79
2017-03-19T14:51:46.728Z,90.08
2017-03-19T14:52:56.477Z,90.08
2017-03-19T14:54:06.507Z,90.08
2017-03-19T14:55:16.437Z,91.6
2017-03-19T14:56:26.562Z,90.93
2017-03-19T14:57:36.526Z,91.03
2017-03-19T14:58:46.590Z,91.13
2017-03-19T14:59:56.620Z,91.03
2017-03-19T15:01:06.882Z,90.93
2017-03-19T15:02:16.924Z,91.13
2017-03-19T15:03:26.973Z,91.22
2017-03-19T15:04:36.948Z,91.22
2017-03-19T15:05:47.021Z,91.5